X  CloseMetar Aviation Weather Data     YMAV Avalon

Temperature

22°C Temperature

9°C Dewpoint

44% Humidity



Wind

29 KM/H

18 MPH

 8 M/S

16 KTS



250°
West South
West
Current Conditions

Clear Clear
Pressure 1008.92 (hPa) - 29.79 (in)
Visibility 6.2 (mi) - 10 (km)
Airport
Airport-code YMAV

Location Avalon 14 (km)

Metar:
YMAV 150730Z AUTO 25016KT 9999 // NCD 22/09 Q1009 RF00.0/000.0

Time: 15-12-2019 18:30